createdAt,value
2023-05-13T00:02:24.911Z,101853.97
2023-05-13T00:04:53.477Z,101848.38
2023-05-13T00:07:21.866Z,101854.50
2023-05-13T00:09:50.267Z,101850.19
2023-05-13T00:12:18.711Z,101849.53
2023-05-13T00:14:47.211Z,101845.72
2023-05-13T00:17:15.670Z,101839.69
2023-05-13T00:19:44.090Z,101851.22
2023-05-13T00:22:12.564Z,101842.22
2023-05-13T00:24:41.086Z,101848.97
2023-05-13T00:27:10.240Z,101840.56
2023-05-13T00:29:38.630Z,101843.94
2023-05-13T00:32:07.405Z,101839.31
2023-05-13T00:34:35.840Z,101836.97
2023-05-13T00:37:07.542Z,101839.00
2023-05-13T00:39:36.206Z,101840.44
2023-05-13T00:42:05.011Z,101842.94
2023-05-13T00:44:34.666Z,101844.69
2023-05-13T00:47:04.041Z,101840.06
2023-05-13T00:49:33.807Z,101846.88
2023-05-13T00:52:02.636Z,101846.38
2023-05-13T00:54:31.324Z,101844.38
2023-05-13T00:56:59.821Z,101845.97
2023-05-13T00:59:30.519Z,101848.56
2023-05-13T01:02:25.268Z,101853.41
2023-05-13T01:05:11.644Z,101849.28
2023-05-13T01:08:07.120Z,101848.06
2023-05-13T01:10:47.478Z,101850.56
2023-05-13T01:13:23.215Z,101851.31
2023-05-13T01:16:01.404Z,101844.97
2023-05-13T01:18:45.191Z,101849.00
2023-05-13T01:21:13.595Z,101849.19
2023-05-13T01:23:41.990Z,101844.84
2023-05-13T01:26:10.557Z,101854.38
2023-05-13T01:28:39.389Z,101841.91
2023-05-13T01:31:10.882Z,101838.34
2023-05-13T01:33:41.640Z,101846.16
2023-05-13T01:36:10.542Z,101844.56
2023-05-13T01:38:39.690Z,101849.13
2023-05-13T01:41:08.143Z,101842.06
2023-05-13T01:43:36.890Z,101848.50
2023-05-13T01:46:12.094Z,101843.59
2023-05-13T01:48:40.629Z,101847.63
2023-05-13T01:51:09.574Z,101845.22
2023-05-13T01:53:38.020Z,101840.66
2023-05-13T01:56:10.154Z,101837.81
2023-05-13T01:58:38.524Z,101846.28
2023-05-13T02:01:07.216Z,101844.63
2023-05-13T02:03:35.870Z,101846.81
2023-05-13T02:06:04.645Z,101846.34
2023-05-13T02:08:33.177Z,101841.44
2023-05-13T02:11:01.773Z,101840.47
2023-05-13T02:13:30.839Z,101846.09
2023-05-13T02:15:59.402Z,101843.59
2023-05-13T02:18:27.994Z,101846.47
2023-05-13T02:20:57.438Z,101844.16
2023-05-13T02:23:25.850Z,101851.75
2023-05-13T02:25:54.196Z,101848.72
2023-05-13T02:28:22.633Z,101844.47
2023-05-13T02:30:51.469Z,101846.69
2023-05-13T02:33:19.945Z,101845.00
2023-05-13T02:35:48.444Z,101843.63
2023-05-13T02:38:16.925Z,101846.19
2023-05-13T02:40:45.362Z,101833.41
2023-05-13T02:43:13.812Z,101830.06
2023-05-13T02:45:42.320Z,101836.66
2023-05-13T02:48:11.154Z,101825.69
2023-05-13T02:50:40.499Z,101837.00
2023-05-13T02:53:08.937Z,101837.50
2023-05-13T02:55:37.468Z,101839.75
2023-05-13T02:58:05.943Z,101840.47
2023-05-13T03:00:34.334Z,101844.94
2023-05-13T03:03:02.884Z,101850.38
2023-05-13T03:05:31.436Z,101850.88
2023-05-13T03:07:59.884Z,101836.91
2023-05-13T03:10:28.398Z,101849.81
2023-05-13T03:12:56.925Z,101845.16
2023-05-13T03:15:25.373Z,101838.00
2023-05-13T03:17:53.895Z,101838.16
2023-05-13T03:20:22.529Z,101836.72
2023-05-13T03:22:51.270Z,101840.66
2023-05-13T03:25:19.774Z,101838.06
2023-05-13T03:27:48.220Z,101842.38
2023-05-13T03:30:16.697Z,101841.66
2023-05-13T03:32:45.165Z,101844.75
2023-05-13T03:35:13.593Z,101841.00
2023-05-13T03:37:42.192Z,101844.97
2023-05-13T03:40:11.026Z,101844.38
2023-05-13T03:42:39.470Z,101845.97
2023-05-13T03:45:08.813Z,101850.25
2023-05-13T03:47:39.334Z,101849.09
2023-05-13T03:50:08.669Z,101849.41
2023-05-13T03:52:37.085Z,101844.97
2023-05-13T03:55:06.400Z,101855.75
2023-05-13T03:57:34.908Z,101850.47
2023-05-13T04:00:03.648Z,101852.19
2023-05-13T04:02:32.154Z,101855.28
2023-05-13T04:05:00.739Z,101852.00
2023-05-13T04:07:29.230Z,101852.28
2023-05-13T04:09:57.763Z,101854.78
2023-05-13T04:12:26.283Z,101850.09
2023-05-13T04:14:54.705Z,101849.59
2023-05-13T04:17:23.195Z,101852.47
2023-05-13T04:19:55.789Z,101850.75
2023-05-13T04:22:24.518Z,101855.00
2023-05-13T04:24:57.138Z,101861.47
2023-05-13T04:27:25.758Z,101856.47
2023-05-13T04:29:54.279Z,101855.75
2023-05-13T04:32:23.118Z,101865.16
2023-05-13T04:34:52.878Z,101869.88
2023-05-13T04:37:21.382Z,101868.59
2023-05-13T04:39:50.805Z,101871.13
2023-05-13T04:42:19.174Z,101871.69
2023-05-13T04:44:47.566Z,101871.41
2023-05-13T04:47:17.058Z,101875.06
2023-05-13T04:49:45.663Z,101872.56
2023-05-13T04:52:14.423Z,101879.25
2023-05-13T04:54:42.967Z,101875.72
2023-05-13T04:57:11.536Z,101882.47
2023-05-13T04:59:40.134Z,101882.50
2023-05-13T05:02:08.730Z,101879.41
2023-05-13T05:04:38.319Z,101882.16
2023-05-13T05:07:06.775Z,101886.97
2023-05-13T05:09:35.645Z,101883.19
2023-05-13T05:12:04.407Z,101886.16
2023-05-13T05:14:32.878Z,101886.34
2023-05-13T05:17:01.532Z,101888.69
2023-05-13T05:19:30.106Z,101894.94
2023-05-13T05:21:58.652Z,101903.63
2023-05-13T05:24:27.257Z,101900.44
2023-05-13T05:26:56.821Z,101906.44
2023-05-13T05:29:25.298Z,101902.94
2023-05-13T05:31:53.882Z,101913.38
2023-05-13T05:34:22.517Z,101917.31
2023-05-13T05:36:51.017Z,101923.09
2023-05-13T05:39:19.749Z,101911.78
2023-05-13T05:41:48.310Z,101917.50
2023-05-13T05:44:16.968Z,101914.69
2023-05-13T05:46:45.710Z,101920.22
2023-05-13T05:49:14.178Z,101913.66
2023-05-13T05:51:42.617Z,101910.59
2023-05-13T05:54:11.180Z,101918.00
2023-05-13T05:56:39.687Z,101920.31
2023-05-13T05:59:08.171Z,101923.00
2023-05-13T06:01:36.992Z,101913.94
2023-05-13T06:04:06.714Z,101926.97
2023-05-13T06:06:36.594Z,101926.91
2023-05-13T06:09:05.076Z,101921.88
2023-05-13T06:11:33.526Z,101920.94
2023-05-13T06:14:02.036Z,101922.28
2023-05-13T06:16:30.710Z,101928.72
2023-05-13T06:18:59.338Z,101923.06
2023-05-13T06:21:27.835Z,101924.56
2023-05-13T06:23:56.181Z,101925.03
2023-05-13T06:26:24.725Z,101914.75
2023-05-13T06:28:53.320Z,101922.75
2023-05-13T06:31:21.891Z,101922.94
2023-05-13T06:33:50.365Z,101922.03
2023-05-13T06:36:18.738Z,101928.00
2023-05-13T06:38:47.344Z,101924.47
2023-05-13T06:41:16.356Z,101932.31
2023-05-13T06:43:46.175Z,101930.66
2023-05-13T06:46:15.406Z,101938.94
2023-05-13T06:48:43.956Z,101935.63
2023-05-13T06:51:12.386Z,101936.75
2023-05-13T06:53:40.873Z,101941.03
2023-05-13T06:56:09.486Z,101944.22
2023-05-13T06:58:38.028Z,101942.13
2023-05-13T07:01:07.107Z,101944.63
2023-05-13T07:03:36.297Z,101938.00
2023-05-13T07:06:04.818Z,101933.56
2023-05-13T07:08:33.333Z,101929.97
2023-05-13T07:11:01.889Z,101944.44
2023-05-13T07:13:33.417Z,101941.25
2023-05-13T07:16:04.689Z,101935.22
2023-05-13T07:18:33.272Z,101939.59
2023-05-13T07:21:01.927Z,101941.38
2023-05-13T07:23:31.512Z,101940.13
2023-05-13T07:25:59.939Z,101941.25
2023-05-13T07:28:28.556Z,101936.28
2023-05-13T07:30:57.136Z,101939.25
2023-05-13T07:33:25.638Z,101939.94
2023-05-13T07:35:54.515Z,101934.47
2023-05-13T07:38:23.177Z,101934.72
2023-05-13T07:40:51.665Z,101945.25
2023-05-13T07:43:23.884Z,101943.75
2023-05-13T07:45:52.466Z,101943.38
2023-05-13T07:48:21.946Z,101941.03
2023-05-13T07:50:50.535Z,101952.56
2023-05-13T07:53:19.889Z,101946.69
2023-05-13T07:55:48.600Z,101948.31
2023-05-13T07:58:18.653Z,101951.13
2023-05-13T08:00:49.543Z,101946.22
2023-05-13T08:03:18.186Z,101943.66
2023-05-13T08:05:48.006Z,101953.03
2023-05-13T08:08:16.713Z,101947.06
2023-05-13T08:10:45.238Z,101950.56
2023-05-13T08:13:13.702Z,101942.59
2023-05-13T08:15:42.590Z,101945.09
2023-05-13T08:18:11.326Z,101939.44
2023-05-13T08:20:40.739Z,101940.25
2023-05-13T08:23:09.363Z,101940.56
2023-05-13T08:25:37.795Z,101941.28
2023-05-13T08:28:06.247Z,101935.97
2023-05-13T08:30:34.762Z,101943.28
2023-05-13T08:33:03.274Z,101936.78
2023-05-13T08:35:32.821Z,101956.63
2023-05-13T08:38:03.803Z,101949.09
2023-05-13T08:40:32.783Z,101951.84
2023-05-13T08:43:02.985Z,101950.03
2023-05-13T08:45:33.460Z,101937.59
2023-05-13T08:48:03.297Z,101942.69
2023-05-13T08:50:33.596Z,101938.34
2023-05-13T08:53:03.732Z,101944.09
2023-05-13T08:55:32.432Z,101950.53
2023-05-13T08:58:01.041Z,101947.97
2023-05-13T09:00:29.655Z,101942.84
2023-05-13T09:02:58.218Z,101941.44
2023-05-13T09:05:28.085Z,101942.25
2023-05-13T09:07:57.328Z,101941.19
2023-05-13T09:10:25.857Z,101949.09
2023-05-13T09:12:55.846Z,101939.50
2023-05-13T09:15:26.760Z,101946.81
2023-05-13T09:18:04.416Z,101944.16
2023-05-13T09:20:33.900Z,101942.47
2023-05-13T09:23:05.480Z,101937.03
2023-05-13T09:25:34.633Z,101943.03
2023-05-13T09:28:05.783Z,101940.69
2023-05-13T09:30:36.590Z,101931.25
2023-05-13T09:33:13.596Z,101930.16
2023-05-13T09:35:45.160Z,101926.94
2023-05-13T09:38:32.072Z,101924.09
2023-05-13T09:41:01.848Z,101937.75
2023-05-13T09:43:34.123Z,101934.94
2023-05-13T09:46:05.419Z,101925.16
2023-05-13T09:48:34.662Z,101918.47
2023-05-13T09:51:03.377Z,101935.44
2023-05-13T09:53:32.917Z,101936.00
2023-05-13T09:56:01.970Z,101934.03
2023-05-13T09:58:31.199Z,101923.94
2023-05-13T10:01:00.578Z,101931.00
2023-05-13T10:03:29.595Z,101926.94
2023-05-13T10:06:02.324Z,101919.31
2023-05-13T10:08:31.965Z,101926.19
2023-05-13T10:11:00.877Z,101922.03
2023-05-13T10:13:31.967Z,101920.47
2023-05-13T10:16:02.180Z,101916.03
2023-05-13T10:18:31.090Z,101913.75
2023-05-13T10:21:00.600Z,101924.50
2023-05-13T10:23:29.466Z,101919.00
2023-05-13T10:25:59.134Z,101907.63
2023-05-13T10:28:28.106Z,101917.03
2023-05-13T10:30:57.194Z,101907.88
2023-05-13T10:33:27.269Z,101916.38
2023-05-13T10:36:06.804Z,101904.25
2023-05-13T10:38:42.480Z,101912.16
2023-05-13T10:41:41.775Z,101914.88
2023-05-13T10:44:10.515Z,101916.03
2023-05-13T10:46:39.761Z,101903.84
2023-05-13T10:49:14.669Z,101912.16
2023-05-13T10:51:49.243Z,101905.44
2023-05-13T10:54:20.299Z,101913.09
2023-05-13T10:56:59.223Z,101905.22
2023-05-13T10:59:30.678Z,101908.56
2023-05-13T11:02:02.071Z,101903.94
2023-05-13T11:04:31.206Z,101898.88
2023-05-13T11:07:15.346Z,101899.44
2023-05-13T11:09:50.206Z,101904.25
2023-05-13T11:12:18.607Z,101890.13
2023-05-13T11:14:47.204Z,101900.19
2023-05-13T11:17:19.428Z,101893.31
2023-05-13T11:19:50.841Z,101882.81
2023-05-13T11:22:26.179Z,101893.88
2023-05-13T11:25:09.502Z,101877.63
2023-05-13T11:27:40.100Z,101879.44
2023-05-13T11:30:29.979Z,101880.19
2023-05-13T11:32:59.677Z,101877.78
2023-05-13T11:35:30.500Z,101882.44
2023-05-13T11:38:03.589Z,101877.25
2023-05-13T11:40:33.854Z,101883.91
2023-05-13T11:43:04.923Z,101884.13
2023-05-13T11:45:38.862Z,101875.53
2023-05-13T11:48:22.109Z,101881.13
2023-05-13T11:50:52.015Z,101883.22
2023-05-13T11:53:22.380Z,101877.75
2023-05-13T11:55:51.579Z,101881.13
2023-05-13T11:58:21.419Z,101884.88
2023-05-13T12:00:49.922Z,101879.44
2023-05-13T12:03:18.355Z,101876.31
2023-05-13T12:05:47.730Z,101873.34
2023-05-13T12:08:16.550Z,101855.53
2023-05-13T12:10:45.320Z,101864.22
2023-05-13T12:13:14.041Z,101864.59
2023-05-13T12:15:42.820Z,101862.56
2023-05-13T12:18:11.652Z,101867.53
2023-05-13T12:20:40.278Z,101867.56
2023-05-13T12:23:11.793Z,101861.38
2023-05-13T12:25:41.796Z,101873.34
2023-05-13T12:28:24.716Z,101858.38
2023-05-13T12:31:00.365Z,101862.81
2023-05-13T12:33:31.786Z,101862.00
2023-05-13T12:36:35.451Z,101867.97
2023-05-13T12:39:08.875Z,101870.06
2023-05-13T12:41:42.340Z,101848.38
2023-05-13T12:44:14.423Z,101863.03
2023-05-13T12:47:01.284Z,101863.63
2023-05-13T12:49:29.892Z,101861.38
2023-05-13T12:51:58.390Z,101866.09
2023-05-13T12:54:26.824Z,101856.19
2023-05-13T12:56:55.331Z,101856.94
2023-05-13T12:59:24.611Z,101855.00
2023-05-13T13:01:53.066Z,101850.88
2023-05-13T13:04:21.525Z,101856.47
2023-05-13T13:06:50.406Z,101864.72
2023-05-13T13:09:18.832Z,101858.66
2023-05-13T13:11:47.791Z,101864.13
2023-05-13T13:14:16.477Z,101853.09
2023-05-13T13:16:44.897Z,101859.75
2023-05-13T13:19:13.494Z,101852.88
2023-05-13T13:21:42.171Z,101854.19
2023-05-13T13:24:10.590Z,101852.06
2023-05-13T13:26:39.034Z,101866.72
2023-05-13T13:29:07.500Z,101863.97
2023-05-13T13:31:37.087Z,101862.38
2023-05-13T13:34:06.083Z,101863.28
2023-05-13T13:36:35.659Z,101857.66
2023-05-13T13:39:04.205Z,101852.16
2023-05-13T13:41:32.720Z,101858.47
2023-05-13T13:44:01.247Z,101863.97
2023-05-13T13:46:29.754Z,101848.38
2023-05-13T13:48:58.259Z,101844.47
2023-05-13T13:51:27.888Z,101842.31
2023-05-13T13:53:56.372Z,101841.03
2023-05-13T13:56:25.612Z,101845.16
2023-05-13T13:58:54.123Z,101823.78
2023-05-13T14:01:23.096Z,101825.44
2023-05-13T14:03:53.020Z,101829.03
2023-05-13T14:06:21.645Z,101826.69
2023-05-13T14:08:51.809Z,101816.28
2023-05-13T14:11:21.693Z,101832.84
2023-05-13T14:13:50.408Z,101821.44
2023-05-13T14:16:18.932Z,101811.28
2023-05-13T14:18:48.828Z,101814.66
2023-05-13T14:21:17.237Z,101810.22
2023-05-13T14:23:45.672Z,101811.25
2023-05-13T14:26:15.666Z,101814.75
2023-05-13T14:28:44.591Z,101815.84
2023-05-13T14:31:13.125Z,101802.69
2023-05-13T14:33:41.831Z,101812.25
2023-05-13T14:36:11.397Z,101809.50
2023-05-13T14:38:40.260Z,101818.84
2023-05-13T14:41:08.759Z,101808.75
2023-05-13T14:43:37.312Z,101803.72
2023-05-13T14:46:05.892Z,101811.84
2023-05-13T14:48:34.476Z,101799.69
2023-05-13T14:51:02.957Z,101810.34
2023-05-13T14:53:31.479Z,101795.47
2023-05-13T14:56:00.038Z,101799.81
2023-05-13T14:58:28.786Z,101798.97
2023-05-13T15:00:57.371Z,101806.38
2023-05-13T15:03:25.985Z,101794.34
2023-05-13T15:05:54.693Z,101787.22
2023-05-13T15:08:23.179Z,101791.63
2023-05-13T15:10:51.700Z,101781.44
2023-05-13T15:13:20.549Z,101789.09
2023-05-13T15:15:49.081Z,101788.34
2023-05-13T15:18:17.610Z,101786.19
2023-05-13T15:20:46.003Z,101787.44
2023-05-13T15:23:14.709Z,101785.81
2023-05-13T15:25:43.446Z,101775.09
2023-05-13T15:28:11.911Z,101773.25
2023-05-13T15:30:40.567Z,101767.75
2023-05-13T15:33:09.220Z,101768.75
2023-05-13T15:35:38.977Z,101764.84
2023-05-13T15:38:08.337Z,101760.13
2023-05-13T15:40:38.113Z,101762.53
2023-05-13T15:43:06.724Z,101768.16
2023-05-13T15:45:35.417Z,101762.66
2023-05-13T15:48:04.242Z,101764.59
2023-05-13T15:50:33.672Z,101766.06
2023-05-13T15:53:02.334Z,101759.66
2023-05-13T15:55:32.012Z,101760.72
2023-05-13T15:58:00.464Z,101760.91
2023-05-13T16:00:28.873Z,101757.88
2023-05-13T16:02:57.631Z,101760.13
2023-05-13T16:05:26.390Z,101755.78
2023-05-13T16:07:56.110Z,101752.63
2023-05-13T16:10:25.572Z,101752.94
2023-05-13T16:12:54.327Z,101756.28
2023-05-13T16:15:22.811Z,101760.44
2023-05-13T16:17:51.294Z,101751.22
2023-05-13T16:20:19.875Z,101748.22
2023-05-13T16:22:48.383Z,101750.28
2023-05-13T16:25:17.209Z,101748.72
2023-05-13T16:30:38.640Z,101750.63
2023-05-13T16:33:09.739Z,101742.66
2023-05-13T16:35:38.341Z,101763.88
2023-05-13T16:38:06.890Z,101759.13
2023-05-13T16:40:35.398Z,101751.38
2023-05-13T16:43:04.239Z,101759.16
2023-05-13T16:45:51.993Z,101753.53
2023-05-13T16:48:21.105Z,101750.31
2023-05-13T16:50:49.778Z,101755.16
2023-05-13T16:56:29.079Z,101755.69
2023-05-13T16:58:58.973Z,101761.94
2023-05-13T17:01:27.578Z,101753.47
2023-05-13T17:03:56.061Z,101762.34
2023-05-13T17:06:24.481Z,101758.44
2023-05-13T17:08:53.012Z,101765.25
2023-05-13T17:11:21.806Z,101759.13
2023-05-13T17:13:50.619Z,101766.19
2023-05-13T17:16:19.216Z,101755.44
2023-05-13T17:18:50.507Z,101757.09
2023-05-13T17:21:19.347Z,101750.47
2023-05-13T17:23:51.099Z,101759.81
2023-05-13T17:26:20.194Z,101757.97
2023-05-13T17:28:49.663Z,101759.31
2023-05-13T17:31:18.612Z,101760.13
2023-05-13T17:33:48.636Z,101751.56
2023-05-13T17:36:17.327Z,101749.03
2023-05-13T17:38:45.971Z,101755.03
2023-05-13T17:41:17.251Z,101756.00
2023-05-13T17:43:46.053Z,101750.66
2023-05-13T17:46:14.697Z,101746.25
2023-05-13T17:48:43.517Z,101742.69
2023-05-13T17:51:12.206Z,101741.13
2023-05-13T17:53:40.964Z,101742.06
2023-05-13T17:56:10.547Z,101746.53
2023-05-13T17:58:39.431Z,101743.75
2023-05-13T18:01:08.311Z,101756.72
2023-05-13T18:03:37.137Z,101754.22
2023-05-13T18:06:05.931Z,101750.66
2023-05-13T18:08:36.204Z,101755.84
2023-05-13T18:11:04.772Z,101743.34
2023-05-13T18:13:35.442Z,101752.66
2023-05-13T18:16:06.383Z,101752.25
2023-05-13T18:18:36.215Z,101765.91
2023-05-13T18:21:07.573Z,101763.91
2023-05-13T18:23:37.368Z,101769.41
2023-05-13T18:26:08.313Z,101779.06
2023-05-13T18:28:36.740Z,101786.88
2023-05-13T18:31:05.179Z,101784.34
2023-05-13T18:33:38.890Z,101775.63
2023-05-13T18:36:09.959Z,101770.72
2023-05-13T18:38:39.765Z,101777.06
2023-05-13T18:41:09.267Z,101775.44
2023-05-13T18:43:38.728Z,101772.66
2023-05-13T18:46:07.968Z,101780.47
2023-05-13T18:48:57.581Z,101775.97
2023-05-13T18:51:27.796Z,101787.97
2023-05-13T18:53:57.579Z,101787.16
2023-05-13T18:56:27.938Z,101790.16
2023-05-13T18:58:57.121Z,101784.97
2023-05-13T19:01:26.684Z,101790.50
2023-05-13T19:03:56.649Z,101796.19
2023-05-13T19:06:26.465Z,101790.28
2023-05-13T19:08:57.284Z,101801.06
2023-05-13T19:11:26.585Z,101808.28
2023-05-13T19:13:55.281Z,101803.66
2023-05-13T19:16:24.579Z,101801.34
2023-05-13T19:18:53.316Z,101802.34
2023-05-13T19:21:23.552Z,101807.41
2023-05-13T19:23:52.101Z,101813.06
2023-05-13T19:26:22.286Z,101817.53
2023-05-13T19:28:51.081Z,101818.06
2023-05-13T19:31:21.916Z,101810.88
2023-05-13T19:33:50.438Z,101819.81
2023-05-13T19:36:18.898Z,101816.22
2023-05-13T19:38:47.349Z,101825.41
2023-05-13T19:41:15.764Z,101824.09
2023-05-13T19:43:44.199Z,101829.84
2023-05-13T19:46:12.804Z,101832.78
2023-05-13T19:48:41.332Z,101829.53
2023-05-13T19:51:09.734Z,101839.44
2023-05-13T19:53:38.194Z,101832.44
2023-05-13T19:56:06.986Z,101841.09
2023-05-13T19:58:35.396Z,101844.69
2023-05-13T20:01:03.864Z,101838.41
2023-05-13T20:03:32.510Z,101831.56
2023-05-13T20:06:01.790Z,101829.06
2023-05-13T20:08:33.023Z,101831.56
2023-05-13T20:11:01.828Z,101829.59
2023-05-13T20:13:30.285Z,101827.63
2023-05-13T20:15:58.720Z,101841.50
2023-05-13T20:18:27.407Z,101838.44
2023-05-13T20:20:55.885Z,101826.75
2023-05-13T20:23:24.351Z,101830.44
2023-05-13T20:25:54.213Z,101835.09
2023-05-13T20:28:22.923Z,101827.84
2023-05-13T20:30:55.657Z,101831.41
2023-05-13T20:33:24.218Z,101828.81
2023-05-13T20:35:52.683Z,101833.13
2023-05-13T20:38:21.785Z,101831.56
2023-05-13T20:40:50.339Z,101831.38
2023-05-13T20:43:19.089Z,101823.97
2023-05-13T20:45:47.577Z,101829.75
2023-05-13T20:48:16.006Z,101823.72
2023-05-13T20:50:44.475Z,101825.16
2023-05-13T20:53:12.960Z,101819.66
2023-05-13T20:55:41.331Z,101813.94
2023-05-13T20:58:09.757Z,101819.88
2023-05-13T21:00:38.126Z,101818.19
2023-05-13T21:03:06.731Z,101816.38
2023-05-13T21:05:36.167Z,101817.13
2023-05-13T21:08:04.680Z,101809.38
2023-05-13T21:10:33.097Z,101807.94
2023-05-13T21:13:01.848Z,101806.06
2023-05-13T21:15:31.778Z,101814.88
2023-05-13T21:18:00.329Z,101807.00
2023-05-13T21:20:28.818Z,101810.53
2023-05-13T21:22:57.336Z,101806.75
2023-05-13T21:25:25.832Z,101804.16
2023-05-13T21:27:54.364Z,101811.41
2023-05-13T21:30:22.907Z,101813.53
2023-05-13T21:32:51.545Z,101806.53
2023-05-13T21:35:20.068Z,101810.50
2023-05-13T21:37:48.828Z,101807.13
2023-05-13T21:40:19.228Z,101817.03
2023-05-13T21:42:47.680Z,101819.03
2023-05-13T21:45:16.309Z,101817.78
2023-05-13T21:47:44.764Z,101816.31
2023-05-13T21:50:13.213Z,101819.25
2023-05-13T21:52:41.699Z,101818.69
2023-05-13T21:55:10.174Z,101816.94
2023-05-13T21:57:38.766Z,101822.69
2023-05-13T22:00:10.736Z,101825.03
2023-05-13T22:02:39.279Z,101823.31
2023-05-13T22:05:08.482Z,101828.97
2023-05-13T22:07:36.913Z,101820.88
2023-05-13T22:10:06.362Z,101827.00
2023-05-13T22:12:34.858Z,101827.88
2023-05-13T22:15:03.556Z,101825.53
2023-05-13T22:17:32.133Z,101816.56
2023-05-13T22:20:00.602Z,101817.22
2023-05-13T22:22:28.995Z,101818.25
2023-05-13T22:24:58.521Z,101810.88
2023-05-13T22:27:27.256Z,101812.88
2023-05-13T22:29:55.675Z,101816.34
2023-05-13T22:32:24.853Z,101813.78
2023-05-13T22:34:53.355Z,101806.75
2023-05-13T22:37:21.828Z,101809.06
2023-05-13T22:39:50.328Z,101813.63
2023-05-13T22:42:18.764Z,101806.16
2023-05-13T22:44:47.282Z,101800.47
2023-05-13T22:47:15.749Z,101800.72
2023-05-13T22:49:44.187Z,101795.91
2023-05-13T22:52:12.619Z,101791.31
2023-05-13T22:54:41.426Z,101792.41
2023-05-13T22:57:09.869Z,101797.63
2023-05-13T22:59:38.283Z,101795.75
2023-05-13T23:02:06.773Z,101796.34
2023-05-13T23:04:35.421Z,101793.53
2023-05-13T23:07:04.130Z,101790.47
2023-05-13T23:09:32.812Z,101789.91
2023-05-13T23:12:01.409Z,101783.75
2023-05-13T23:14:30.145Z,101779.09
2023-05-13T23:16:58.642Z,101773.31
2023-05-13T23:19:27.608Z,101780.13
2023-05-13T23:21:56.051Z,101777.56
2023-05-13T23:24:24.533Z,101774.53
2023-05-13T23:26:53.007Z,101776.13
2023-05-13T23:29:21.438Z,101768.19
2023-05-13T23:31:49.828Z,101766.38
2023-05-13T23:34:18.385Z,101772.09
2023-05-13T23:36:46.810Z,101768.09
2023-05-13T23:39:15.288Z,101766.56
2023-05-13T23:41:43.768Z,101772.31
2023-05-13T23:44:12.172Z,101764.84
2023-05-13T23:46:40.854Z,101767.91
2023-05-13T23:49:09.375Z,101761.16
2023-05-13T23:51:38.288Z,101761.44
2023-05-13T23:54:08.192Z,101768.50
2023-05-13T23:56:36.738Z,101763.81
2023-05-13T23:59:05.213Z,101757.84
